sensor_id;sensor_type;location;lat;lon;timestamp;P1;durP1;ratioP1;P2;durP2;ratioP2
5987;SDS011;3021;51.000;6.980;2024-01-15T00:01:43;50.45;;;17.95;;
5987;SDS011;3021;51.000;6.980;2024-01-15T00:04:09;44.47;;;18.83;;
5987;SDS011;3021;51.000;6.980;2024-01-15T00:06:34;54.00;;;18.92;;
5987;SDS011;3021;51.000;6.980;2024-01-15T00:09:00;58.42;;;18.65;;
5987;SDS011;3021;51.000;6.980;2024-01-15T00:11:25;56.28;;;17.85;;
5987;SDS011;3021;51.000;6.980;2024-01-15T00:13:50;53.25;;;19.63;;
5987;SDS011;3021;51.000;6.980;2024-01-15T00:16:16;57.30;;;19.55;;
5987;SDS011;3021;51.000;6.980;2024-01-15T00:18:42;58.53;;;18.65;;
5987;SDS011;3021;51.000;6.980;2024-01-15T00:21:07;51.38;;;19.88;;
5987;SDS011;3021;51.000;6.980;2024-01-15T00:23:33;56.42;;;20.65;;
5987;SDS011;3021;51.000;6.980;2024-01-15T00:25:58;50.55;;;17.73;;
5987;SDS011;3021;51.000;6.980;2024-01-15T00:28:23;62.20;;;21.83;;
5987;SDS011;3021;51.000;6.980;2024-01-15T00:30:48;59.90;;;19.88;;
5987;SDS011;3021;51.000;6.980;2024-01-15T00:33:14;60.33;;;19.80;;
5987;SDS011;3021;51.000;6.980;2024-01-15T00:35:39;67.68;;;20.20;;
5987;SDS011;3021;51.000;6.980;2024-01-15T00:38:05;63.45;;;21.52;;
5987;SDS011;3021;51.000;6.980;2024-01-15T00:40:31;58.47;;;19.92;;
5987;SDS011;3021;51.000;6.980;2024-01-15T00:42:56;62.42;;;19.50;;
5987;SDS011;3021;51.000;6.980;2024-01-15T00:45:21;57.75;;;19.60;;
5987;SDS011;3021;51.000;6.980;2024-01-15T00:47:47;61.05;;;19.90;;
5987;SDS011;3021;51.000;6.980;2024-01-15T00:50:12;59.15;;;20.65;;
5987;SDS011;3021;51.000;6.980;2024-01-15T00:52:37;70.75;;;19.55;;
5987;SDS011;3021;51.000;6.980;2024-01-15T00:55:03;67.30;;;21.00;;
5987;SDS011;3021;51.000;6.980;2024-01-15T00:57:29;57.15;;;19.02;;
5987;SDS011;3021;51.000;6.980;2024-01-15T00:59:54;70.95;;;19.75;;
5987;SDS011;3021;51.000;6.980;2024-01-15T01:02:19;58.10;;;19.48;;
5987;SDS011;3021;51.000;6.980;2024-01-15T01:04:45;59.88;;;19.55;;
5987;SDS011;3021;51.000;6.980;2024-01-15T01:07:10;57.70;;;20.38;;
5987;SDS011;3021;51.000;6.980;2024-01-15T01:09:35;57.08;;;20.02;;
5987;SDS011;3021;51.000;6.980;2024-01-15T01:12:01;60.63;;;19.92;;
5987;SDS011;3021;51.000;6.980;2024-01-15T01:14:26;65.32;;;21.02;;
5987;SDS011;3021;51.000;6.980;2024-01-15T01:16:51;64.68;;;19.08;;
5987;SDS011;3021;51.000;6.980;2024-01-15T01:19:16;64.70;;;19.85;;
5987;SDS011;3021;51.000;6.980;2024-01-15T01:21:42;65.13;;;21.33;;
5987;SDS011;3021;51.000;6.980;2024-01-15T01:24:07;62.05;;;21.20;;
5987;SDS011;3021;51.000;6.980;2024-01-15T01:26:32;56.95;;;19.70;;
5987;SDS011;3021;51.000;6.980;2024-01-15T01:28:58;56.72;;;18.17;;
5987;SDS011;3021;51.000;6.980;2024-01-15T01:31:24;69.13;;;20.73;;
5987;SDS011;3021;51.000;6.980;2024-01-15T01:33:49;64.15;;;20.98;;
5987;SDS011;3021;51.000;6.980;2024-01-15T01:36:14;55.47;;;19.13;;
5987;SDS011;3021;51.000;6.980;2024-01-15T01:38:40;66.32;;;20.70;;
5987;SDS011;3021;51.000;6.980;2024-01-15T01:41:05;55.42;;;19.88;;
5987;SDS011;3021;51.000;6.980;2024-01-15T01:43:31;63.03;;;21.73;;
5987;SDS011;3021;51.000;6.980;2024-01-15T01:45:57;61.47;;;20.65;;
5987;SDS011;3021;51.000;6.980;2024-01-15T01:48:25;62.25;;;20.85;;
5987;SDS011;3021;51.000;6.980;2024-01-15T01:50:52;54.72;;;19.98;;
5987;SDS011;3021;51.000;6.980;2024-01-15T01:53:20;59.92;;;20.55;;
5987;SDS011;3021;51.000;6.980;2024-01-15T01:55:46;68.50;;;22.13;;
5987;SDS011;3021;51.000;6.980;2024-01-15T01:58:13;72.30;;;20.98;;
5987;SDS011;3021;51.000;6.980;2024-01-15T02:00:38;72.45;;;22.13;;
5987;SDS011;3021;51.000;6.980;2024-01-15T02:03:04;63.22;;;20.88;;
5987;SDS011;3021;51.000;6.980;2024-01-15T02:05:29;66.30;;;21.45;;
5987;SDS011;3021;51.000;6.980;2024-01-15T02:07:56;55.53;;;19.40;;
5987;SDS011;3021;51.000;6.980;2024-01-15T02:10:21;68.38;;;22.02;;
5987;SDS011;3021;51.000;6.980;2024-01-15T02:12:46;59.15;;;19.48;;
5987;SDS011;3021;51.000;6.980;2024-01-15T02:15:13;57.40;;;19.58;;
5987;SDS011;3021;51.000;6.980;2024-01-15T02:20:30;67.30;;;20.52;;
5987;SDS011;3021;51.000;6.980;2024-01-15T02:23:12;64.75;;;20.42;;
5987;SDS011;3021;51.000;6.980;2024-01-15T02:25:42;54.30;;;20.02;;
5987;SDS011;3021;51.000;6.980;2024-01-15T02:28:10;58.22;;;20.25;;
5987;SDS011;3021;51.000;6.980;2024-01-15T02:30:40;57.90;;;20.40;;
5987;SDS011;3021;51.000;6.980;2024-01-15T02:33:06;61.40;;;20.02;;
5987;SDS011;3021;51.000;6.980;2024-01-15T02:35:35;51.42;;;18.35;;
5987;SDS011;3021;51.000;6.980;2024-01-15T02:38:04;64.88;;;19.95;;
5987;SDS011;3021;51.000;6.980;2024-01-15T02:40:30;68.15;;;21.58;;
5987;SDS011;3021;51.000;6.980;2024-01-15T02:42:55;61.03;;;20.45;;
5987;SDS011;3021;51.000;6.980;2024-01-15T02:45:21;52.53;;;19.30;;
5987;SDS011;3021;51.000;6.980;2024-01-15T02:47:47;51.17;;;19.02;;
5987;SDS011;3021;51.000;6.980;2024-01-15T02:50:12;59.35;;;20.33;;
5987;SDS011;3021;51.000;6.980;2024-01-15T02:52:38;53.33;;;20.27;;
5987;SDS011;3021;51.000;6.980;2024-01-15T02:55:03;61.75;;;21.90;;
5987;SDS011;3021;51.000;6.980;2024-01-15T02:57:29;55.25;;;21.35;;
5987;SDS011;3021;51.000;6.980;2024-01-15T02:59:54;65.35;;;21.70;;
5987;SDS011;3021;51.000;6.980;2024-01-15T03:02:19;64.95;;;22.20;;
5987;SDS011;3021;51.000;6.980;2024-01-15T03:04:45;65.03;;;21.80;;
5987;SDS011;3021;51.000;6.980;2024-01-15T03:07:10;58.60;;;22.08;;
5987;SDS011;3021;51.000;6.980;2024-01-15T03:09:36;60.00;;;21.95;;
5987;SDS011;3021;51.000;6.980;2024-01-15T03:12:01;61.13;;;21.23;;
5987;SDS011;3021;51.000;6.980;2024-01-15T03:14:26;61.10;;;22.30;;
5987;SDS011;3021;51.000;6.980;2024-01-15T03:16:52;59.72;;;21.55;;
5987;SDS011;3021;51.000;6.980;2024-01-15T03:19:18;56.15;;;20.50;;
5987;SDS011;3021;51.000;6.980;2024-01-15T03:21:43;62.65;;;21.23;;
5987;SDS011;3021;51.000;6.980;2024-01-15T03:24:08;61.83;;;21.80;;
5987;SDS011;3021;51.000;6.980;2024-01-15T03:26:34;54.15;;;20.48;;
5987;SDS011;3021;51.000;6.980;2024-01-15T03:29:00;59.97;;;19.88;;
5987;SDS011;3021;51.000;6.980;2024-01-15T03:31:26;53.47;;;19.90;;
5987;SDS011;3021;51.000;6.980;2024-01-15T03:33:51;54.03;;;20.40;;
5987;SDS011;3021;51.000;6.980;2024-01-15T03:36:16;56.50;;;20.55;;
5987;SDS011;3021;51.000;6.980;2024-01-15T03:38:42;56.55;;;20.08;;
5987;SDS011;3021;51.000;6.980;2024-01-15T03:41:07;58.97;;;20.50;;
5987;SDS011;3021;51.000;6.980;2024-01-15T03:43:33;50.00;;;19.23;;
5987;SDS011;3021;51.000;6.980;2024-01-15T03:45:58;50.90;;;19.27;;
5987;SDS011;3021;51.000;6.980;2024-01-15T03:48:23;53.22;;;20.27;;
5987;SDS011;3021;51.000;6.980;2024-01-15T03:50:49;57.38;;;20.30;;
5987;SDS011;3021;51.000;6.980;2024-01-15T03:53:14;58.03;;;19.95;;
5987;SDS011;3021;51.000;6.980;2024-01-15T03:55:39;54.15;;;19.52;;
5987;SDS011;3021;51.000;6.980;2024-01-15T03:58:05;53.80;;;20.27;;
5987;SDS011;3021;51.000;6.980;2024-01-15T04:00:30;55.00;;;20.88;;
5987;SDS011;3021;51.000;6.980;2024-01-15T04:02:55;51.88;;;19.55;;
5987;SDS011;3021;51.000;6.980;2024-01-15T04:05:21;47.92;;;19.45;;
5987;SDS011;3021;51.000;6.980;2024-01-15T04:07:46;51.88;;;19.55;;
5987;SDS011;3021;51.000;6.980;2024-01-15T04:10:11;50.55;;;20.42;;
5987;SDS011;3021;51.000;6.980;2024-01-15T04:12:37;48.55;;;19.45;;
5987;SDS011;3021;51.000;6.980;2024-01-15T04:15:02;51.58;;;21.17;;
5987;SDS011;3021;51.000;6.980;2024-01-15T04:17:28;52.53;;;20.58;;
5987;SDS011;3021;51.000;6.980;2024-01-15T04:19:53;48.47;;;20.33;;
5987;SDS011;3021;51.000;6.980;2024-01-15T04:22:19;51.67;;;20.50;;
5987;SDS011;3021;51.000;6.980;2024-01-15T04:24:45;50.83;;;19.10;;
5987;SDS011;3021;51.000;6.980;2024-01-15T04:27:10;50.97;;;19.50;;
5987;SDS011;3021;51.000;6.980;2024-01-15T04:29:37;44.60;;;18.25;;
5987;SDS011;3021;51.000;6.980;2024-01-15T04:32:04;45.72;;;17.58;;
5987;SDS011;3021;51.000;6.980;2024-01-15T04:34:29;49.67;;;17.63;;
5987;SDS011;3021;51.000;6.980;2024-01-15T04:36:54;53.53;;;16.95;;
5987;SDS011;3021;51.000;6.980;2024-01-15T04:39:20;43.70;;;16.70;;
5987;SDS011;3021;51.000;6.980;2024-01-15T04:41:45;58.22;;;16.55;;
5987;SDS011;3021;51.000;6.980;2024-01-15T04:44:10;36.38;;;14.63;;
5987;SDS011;3021;51.000;6.980;2024-01-15T04:46:35;39.40;;;15.60;;
5987;SDS011;3021;51.000;6.980;2024-01-15T04:49:01;44.83;;;15.63;;
5987;SDS011;3021;51.000;6.980;2024-01-15T04:51:26;43.53;;;17.08;;
5987;SDS011;3021;51.000;6.980;2024-01-15T04:53:52;35.25;;;13.95;;
5987;SDS011;3021;51.000;6.980;2024-01-15T04:56:17;37.70;;;16.92;;
5987;SDS011;3021;51.000;6.980;2024-01-15T04:58:43;44.90;;;17.17;;
5987;SDS011;3021;51.000;6.980;2024-01-15T05:01:08;46.05;;;17.00;;
5987;SDS011;3021;51.000;6.980;2024-01-15T05:03:35;36.55;;;15.98;;
5987;SDS011;3021;51.000;6.980;2024-01-15T05:06:00;47.63;;;18.30;;
5987;SDS011;3021;51.000;6.980;2024-01-15T05:08:25;46.85;;;17.75;;
5987;SDS011;3021;51.000;6.980;2024-01-15T05:10:51;35.38;;;14.95;;
5987;SDS011;3021;51.000;6.980;2024-01-15T05:13:16;39.55;;;14.85;;
5987;SDS011;3021;51.000;6.980;2024-01-15T05:15:41;35.97;;;15.48;;
5987;SDS011;3021;51.000;6.980;2024-01-15T05:18:07;29.98;;;13.85;;
5987;SDS011;3021;51.000;6.980;2024-01-15T05:20:32;35.45;;;13.00;;
5987;SDS011;3021;51.000;6.980;2024-01-15T05:22:57;31.42;;;14.30;;
5987;SDS011;3021;51.000;6.980;2024-01-15T05:25:23;29.08;;;12.52;;
5987;SDS011;3021;51.000;6.980;2024-01-15T05:27:48;35.78;;;13.60;;
5987;SDS011;3021;51.000;6.980;2024-01-15T05:30:13;34.30;;;13.27;;
5987;SDS011;3021;51.000;6.980;2024-01-15T05:32:39;30.52;;;12.30;;
5987;SDS011;3021;51.000;6.980;2024-01-15T05:35:05;30.77;;;12.40;;
5987;SDS011;3021;51.000;6.980;2024-01-15T05:37:30;34.47;;;13.20;;
5987;SDS011;3021;51.000;6.980;2024-01-15T05:39:55;34.83;;;12.85;;
5987;SDS011;3021;51.000;6.980;2024-01-15T05:42:21;36.70;;;12.43;;
5987;SDS011;3021;51.000;6.980;2024-01-15T05:44:46;26.17;;;10.80;;
5987;SDS011;3021;51.000;6.980;2024-01-15T05:47:11;24.33;;;12.10;;
5987;SDS011;3021;51.000;6.980;2024-01-15T05:49:37;27.45;;;12.35;;
5987;SDS011;3021;51.000;6.980;2024-01-15T05:52:02;25.73;;;10.88;;
5987;SDS011;3021;51.000;6.980;2024-01-15T05:54:28;23.35;;;10.70;;
5987;SDS011;3021;51.000;6.980;2024-01-15T05:56:54;20.98;;;9.75;;
5987;SDS011;3021;51.000;6.980;2024-01-15T05:59:19;26.73;;;10.25;;
5987;SDS011;3021;51.000;6.980;2024-01-15T06:01:44;24.35;;;10.30;;
5987;SDS011;3021;51.000;6.980;2024-01-15T06:04:10;29.88;;;10.88;;
5987;SDS011;3021;51.000;6.980;2024-01-15T06:06:35;23.30;;;9.35;;
5987;SDS011;3021;51.000;6.980;2024-01-15T06:09:00;23.73;;;10.50;;
5987;SDS011;3021;51.000;6.980;2024-01-15T06:11:30;30.23;;;10.70;;
5987;SDS011;3021;51.000;6.980;2024-01-15T06:13:56;22.70;;;10.15;;
5987;SDS011;3021;51.000;6.980;2024-01-15T06:16:21;22.80;;;10.80;;
5987;SDS011;3021;51.000;6.980;2024-01-15T06:18:49;26.10;;;10.45;;
5987;SDS011;3021;51.000;6.980;2024-01-15T06:21:14;26.05;;;11.48;;
5987;SDS011;3021;51.000;6.980;2024-01-15T06:23:40;25.45;;;9.93;;
5987;SDS011;3021;51.000;6.980;2024-01-15T06:26:05;21.70;;;9.68;;
5987;SDS011;3021;51.000;6.980;2024-01-15T06:28:31;29.05;;;9.75;;
5987;SDS011;3021;51.000;6.980;2024-01-15T06:30:56;27.02;;;11.18;;
5987;SDS011;3021;51.000;6.980;2024-01-15T06:33:23;25.23;;;10.35;;
5987;SDS011;3021;51.000;6.980;2024-01-15T06:35:48;25.55;;;10.32;;
5987;SDS011;3021;51.000;6.980;2024-01-15T06:38:14;28.33;;;11.10;;
5987;SDS011;3021;51.000;6.980;2024-01-15T06:40:40;27.35;;;11.30;;
5987;SDS011;3021;51.000;6.980;2024-01-15T06:43:10;26.20;;;11.10;;
5987;SDS011;3021;51.000;6.980;2024-01-15T06:45:38;27.17;;;11.43;;
5987;SDS011;3021;51.000;6.980;2024-01-15T06:48:04;23.73;;;11.18;;
5987;SDS011;3021;51.000;6.980;2024-01-15T06:50:30;28.92;;;11.52;;
5987;SDS011;3021;51.000;6.980;2024-01-15T06:52:55;26.50;;;12.85;;
5987;SDS011;3021;51.000;6.980;2024-01-15T06:55:21;29.33;;;12.60;;
5987;SDS011;3021;51.000;6.980;2024-01-15T06:57:46;28.42;;;12.27;;
5987;SDS011;3021;51.000;6.980;2024-01-15T07:00:11;27.20;;;13.43;;
5987;SDS011;3021;51.000;6.980;2024-01-15T07:02:37;27.85;;;12.32;;
5987;SDS011;3021;51.000;6.980;2024-01-15T07:05:02;24.10;;;12.40;;
5987;SDS011;3021;51.000;6.980;2024-01-15T07:07:30;27.67;;;13.13;;
5987;SDS011;3021;51.000;6.980;2024-01-15T07:09:55;27.30;;;13.52;;
5987;SDS011;3021;51.000;6.980;2024-01-15T07:12:21;30.15;;;14.10;;
5987;SDS011;3021;51.000;6.980;2024-01-15T07:14:46;27.40;;;13.35;;
5987;SDS011;3021;51.000;6.980;2024-01-15T07:17:11;34.70;;;14.30;;
5987;SDS011;3021;51.000;6.980;2024-01-15T07:19:36;32.47;;;15.15;;
5987;SDS011;3021;51.000;6.980;2024-01-15T07:22:02;35.00;;;14.73;;
5987;SDS011;3021;51.000;6.980;2024-01-15T07:24:27;35.97;;;14.30;;
5987;SDS011;3021;51.000;6.980;2024-01-15T07:26:53;34.40;;;14.90;;
5987;SDS011;3021;51.000;6.980;2024-01-15T07:29:18;30.90;;;14.30;;
5987;SDS011;3021;51.000;6.980;2024-01-15T07:31:52;38.85;;;14.93;;
5987;SDS011;3021;51.000;6.980;2024-01-15T07:34:18;36.72;;;14.93;;
5987;SDS011;3021;51.000;6.980;2024-01-15T07:36:44;34.13;;;15.00;;
5987;SDS011;3021;51.000;6.980;2024-01-15T07:39:10;32.17;;;14.57;;
5987;SDS011;3021;51.000;6.980;2024-01-15T07:41:36;39.72;;;14.55;;
5987;SDS011;3021;51.000;6.980;2024-01-15T07:44:02;33.78;;;16.15;;
5987;SDS011;3021;51.000;6.980;2024-01-15T07:46:27;35.13;;;16.02;;
5987;SDS011;3021;51.000;6.980;2024-01-15T07:48:53;42.75;;;16.13;;
5987;SDS011;3021;51.000;6.980;2024-01-15T07:51:24;35.95;;;15.07;;
5987;SDS011;3021;51.000;6.980;2024-01-15T07:53:50;34.33;;;15.88;;
5987;SDS011;3021;51.000;6.980;2024-01-15T07:56:18;33.00;;;15.13;;
5987;SDS011;3021;51.000;6.980;2024-01-15T07:58:43;44.03;;;17.17;;
5987;SDS011;3021;51.000;6.980;2024-01-15T08:01:09;36.30;;;17.42;;
5987;SDS011;3021;51.000;6.980;2024-01-15T08:03:34;40.03;;;15.88;;
5987;SDS011;3021;51.000;6.980;2024-01-15T08:05:59;35.50;;;16.45;;
5987;SDS011;3021;51.000;6.980;2024-01-15T08:08:25;35.95;;;16.98;;
5987;SDS011;3021;51.000;6.980;2024-01-15T08:10:53;37.42;;;17.02;;
5987;SDS011;3021;51.000;6.980;2024-01-15T08:13:19;38.22;;;18.90;;
5987;SDS011;3021;51.000;6.980;2024-01-15T08:15:45;43.42;;;17.92;;
5987;SDS011;3021;51.000;6.980;2024-01-15T08:18:10;34.38;;;16.52;;
5987;SDS011;3021;51.000;6.980;2024-01-15T08:20:36;44.47;;;18.83;;
5987;SDS011;3021;51.000;6.980;2024-01-15T08:23:02;40.50;;;18.17;;
5987;SDS011;3021;51.000;6.980;2024-01-15T08:25:27;51.28;;;20.38;;
5987;SDS011;3021;51.000;6.980;2024-01-15T08:27:53;51.00;;;20.27;;
5987;SDS011;3021;51.000;6.980;2024-01-15T08:30:18;45.97;;;20.50;;
5987;SDS011;3021;51.000;6.980;2024-01-15T08:32:44;50.78;;;19.80;;
5987;SDS011;3021;51.000;6.980;2024-01-15T08:35:10;50.13;;;19.45;;
5987;SDS011;3021;51.000;6.980;2024-01-15T08:37:36;41.40;;;18.15;;
5987;SDS011;3021;51.000;6.980;2024-01-15T08:40:02;44.65;;;19.20;;
5987;SDS011;3021;51.000;6.980;2024-01-15T08:42:28;40.22;;;18.92;;
5987;SDS011;3021;51.000;6.980;2024-01-15T08:44:54;38.72;;;16.25;;
5987;SDS011;3021;51.000;6.980;2024-01-15T08:47:19;34.75;;;16.15;;
5987;SDS011;3021;51.000;6.980;2024-01-15T08:49:45;43.10;;;18.58;;
5987;SDS011;3021;51.000;6.980;2024-01-15T08:52:11;43.58;;;16.55;;
5987;SDS011;3021;51.000;6.980;2024-01-15T08:54:36;35.58;;;15.77;;
5987;SDS011;3021;51.000;6.980;2024-01-15T08:57:02;43.17;;;18.45;;
5987;SDS011;3021;51.000;6.980;2024-01-15T08:59:27;40.95;;;17.88;;
5987;SDS011;3021;51.000;6.980;2024-01-15T09:01:53;38.40;;;16.98;;
5987;SDS011;3021;51.000;6.980;2024-01-15T09:04:18;37.78;;;16.27;;
5987;SDS011;3021;51.000;6.980;2024-01-15T09:06:47;44.70;;;17.65;;
5987;SDS011;3021;51.000;6.980;2024-01-15T09:09:12;38.17;;;17.23;;
5987;SDS011;3021;51.000;6.980;2024-01-15T09:11:39;33.25;;;15.02;;
5987;SDS011;3021;51.000;6.980;2024-01-15T09:14:08;38.97;;;16.90;;
5987;SDS011;3021;51.000;6.980;2024-01-15T09:16:34;35.05;;;16.10;;
5987;SDS011;3021;51.000;6.980;2024-01-15T09:19:00;38.92;;;17.00;;
5987;SDS011;3021;51.000;6.980;2024-01-15T09:21:25;36.28;;;18.20;;
5987;SDS011;3021;51.000;6.980;2024-01-15T09:23:50;36.13;;;16.42;;
5987;SDS011;3021;51.000;6.980;2024-01-15T09:26:17;30.33;;;14.60;;
5987;SDS011;3021;51.000;6.980;2024-01-15T09:28:42;30.13;;;14.00;;
5987;SDS011;3021;51.000;6.980;2024-01-15T09:31:08;36.78;;;16.75;;
5987;SDS011;3021;51.000;6.980;2024-01-15T09:33:33;35.17;;;14.70;;
5987;SDS011;3021;51.000;6.980;2024-01-15T09:36:02;26.38;;;13.02;;
5987;SDS011;3021;51.000;6.980;2024-01-15T09:38:29;30.48;;;14.18;;
5987;SDS011;3021;51.000;6.980;2024-01-15T09:40:57;28.27;;;12.85;;
5987;SDS011;3021;51.000;6.980;2024-01-15T09:43:22;19.95;;;10.82;;
5987;SDS011;3021;51.000;6.980;2024-01-15T09:45:49;28.02;;;11.85;;
5987;SDS011;3021;51.000;6.980;2024-01-15T09:48:14;23.05;;;11.63;;
5987;SDS011;3021;51.000;6.980;2024-01-15T09:50:41;19.40;;;10.38;;
5987;SDS011;3021;51.000;6.980;2024-01-15T09:53:07;25.17;;;10.73;;
5987;SDS011;3021;51.000;6.980;2024-01-15T09:55:34;22.77;;;10.65;;
5987;SDS011;3021;51.000;6.980;2024-01-15T09:58:02;22.00;;;9.43;;
5987;SDS011;3021;51.000;6.980;2024-01-15T10:00:28;19.15;;;9.88;;
5987;SDS011;3021;51.000;6.980;2024-01-15T10:02:54;16.60;;;8.98;;
5987;SDS011;3021;51.000;6.980;2024-01-15T10:05:21;18.77;;;9.63;;
5987;SDS011;3021;51.000;6.980;2024-01-15T10:07:46;18.48;;;8.68;;
5987;SDS011;3021;51.000;6.980;2024-01-15T10:10:15;17.15;;;8.63;;
5987;SDS011;3021;51.000;6.980;2024-01-15T10:12:40;19.95;;;8.50;;
5987;SDS011;3021;51.000;6.980;2024-01-15T10:15:09;16.05;;;8.32;;
5987;SDS011;3021;51.000;6.980;2024-01-15T10:17:36;17.02;;;8.27;;
5987;SDS011;3021;51.000;6.980;2024-01-15T10:20:03;16.52;;;8.15;;
5987;SDS011;3021;51.000;6.980;2024-01-15T10:22:34;13.10;;;7.53;;
5987;SDS011;3021;51.000;6.980;2024-01-15T10:25:01;17.80;;;8.23;;
5987;SDS011;3021;51.000;6.980;2024-01-15T10:27:26;13.02;;;7.50;;
5987;SDS011;3021;51.000;6.980;2024-01-15T10:29:52;12.50;;;6.97;;
5987;SDS011;3021;51.000;6.980;2024-01-15T10:32:18;15.57;;;7.82;;
5987;SDS011;3021;51.000;6.980;2024-01-15T10:34:44;14.65;;;7.68;;
5987;SDS011;3021;51.000;6.980;2024-01-15T10:37:09;13.13;;;7.22;;
5987;SDS011;3021;51.000;6.980;2024-01-15T10:39:35;14.50;;;7.78;;
5987;SDS011;3021;51.000;6.980;2024-01-15T10:42:01;17.08;;;7.07;;
5987;SDS011;3021;51.000;6.980;2024-01-15T10:44:28;15.10;;;7.80;;
5987;SDS011;3021;51.000;6.980;2024-01-15T10:46:54;13.10;;;7.68;;
5987;SDS011;3021;51.000;6.980;2024-01-15T10:49:21;11.98;;;7.38;;
5987;SDS011;3021;51.000;6.980;2024-01-15T10:51:49;11.07;;;6.55;;
5987;SDS011;3021;51.000;6.980;2024-01-15T10:54:16;11.38;;;6.18;;
5987;SDS011;3021;51.000;6.980;2024-01-15T10:56:41;10.10;;;6.15;;
5987;SDS011;3021;51.000;6.980;2024-01-15T10:59:08;11.75;;;6.32;;
5987;SDS011;3021;51.000;6.980;2024-01-15T11:01:35;9.88;;;5.97;;
5987;SDS011;3021;51.000;6.980;2024-01-15T11:04:01;10.93;;;6.85;;
5987;SDS011;3021;51.000;6.980;2024-01-15T11:06:27;13.75;;;6.43;;
5987;SDS011;3021;51.000;6.980;2024-01-15T11:08:54;13.88;;;6.50;;
5987;SDS011;3021;51.000;6.980;2024-01-15T11:11:20;12.82;;;6.07;;
5987;SDS011;3021;51.000;6.980;2024-01-15T11:13:47;8.57;;;5.00;;
5987;SDS011;3021;51.000;6.980;2024-01-15T11:16:14;10.43;;;4.93;;
5987;SDS011;3021;51.000;6.980;2024-01-15T11:18:41;9.70;;;5.00;;
5987;SDS011;3021;51.000;6.980;2024-01-15T11:21:22;14.02;;;5.05;;
5987;SDS011;3021;51.000;6.980;2024-01-15T11:23:55;10.82;;;5.40;;
5987;SDS011;3021;51.000;6.980;2024-01-15T11:26:36;10.32;;;5.13;;
5987;SDS011;3021;51.000;6.980;2024-01-15T11:29:02;9.27;;;5.07;;
5987;SDS011;3021;51.000;6.980;2024-01-15T11:31:58;9.50;;;4.22;;
5987;SDS011;3021;51.000;6.980;2024-01-15T11:37:16;6.38;;;3.67;;
5987;SDS011;3021;51.000;6.980;2024-01-15T11:39:42;5.72;;;3.83;;
5987;SDS011;3021;51.000;6.980;2024-01-15T11:42:09;5.15;;;3.58;;
5987;SDS011;3021;51.000;6.980;2024-01-15T11:44:36;10.25;;;4.35;;
5987;SDS011;3021;51.000;6.980;2024-01-15T11:52:20;6.43;;;4.22;;
5987;SDS011;3021;51.000;6.980;2024-01-15T11:54:54;6.47;;;4.20;;
5987;SDS011;3021;51.000;6.980;2024-01-15T11:57:25;7.82;;;4.63;;
5987;SDS011;3021;51.000;6.980;2024-01-15T12:00:06;7.10;;;5.05;;
5987;SDS011;3021;51.000;6.980;2024-01-15T12:02:34;11.48;;;5.63;;
5987;SDS011;3021;51.000;6.980;2024-01-15T12:05:00;7.07;;;5.07;;
5987;SDS011;3021;51.000;6.980;2024-01-15T12:07:25;9.98;;;6.10;;
5987;SDS011;3021;51.000;6.980;2024-01-15T12:09:51;10.45;;;6.20;;
5987;SDS011;3021;51.000;6.980;2024-01-15T12:12:26;13.30;;;6.78;;
5987;SDS011;3021;51.000;6.980;2024-01-15T12:15:00;9.95;;;6.88;;
5987;SDS011;3021;51.000;6.980;2024-01-15T12:17:25;11.25;;;7.82;;
5987;SDS011;3021;51.000;6.980;2024-01-15T12:19:51;15.65;;;8.07;;
5987;SDS011;3021;51.000;6.980;2024-01-15T12:22:16;14.30;;;8.27;;
5987;SDS011;3021;51.000;6.980;2024-01-15T12:24:41;18.75;;;8.98;;
5987;SDS011;3021;51.000;6.980;2024-01-15T12:27:07;16.65;;;9.18;;
5987;SDS011;3021;51.000;6.980;2024-01-15T12:29:33;19.48;;;9.85;;
5987;SDS011;3021;51.000;6.980;2024-01-15T12:31:58;21.77;;;8.95;;
5987;SDS011;3021;51.000;6.980;2024-01-15T12:34:23;17.88;;;8.60;;
5987;SDS011;3021;51.000;6.980;2024-01-15T12:36:49;15.85;;;7.70;;
5987;SDS011;3021;51.000;6.980;2024-01-15T12:39:14;18.45;;;8.13;;
5987;SDS011;3021;51.000;6.980;2024-01-15T12:41:40;13.52;;;7.35;;
5987;SDS011;3021;51.000;6.980;2024-01-15T12:44:06;14.43;;;7.45;;
5987;SDS011;3021;51.000;6.980;2024-01-15T12:46:31;13.32;;;7.10;;
5987;SDS011;3021;51.000;6.980;2024-01-15T12:48:57;9.60;;;6.13;;
5987;SDS011;3021;51.000;6.980;2024-01-15T12:51:25;11.30;;;6.68;;
5987;SDS011;3021;51.000;6.980;2024-01-15T12:53:51;18.88;;;6.38;;
5987;SDS011;3021;51.000;6.980;2024-01-15T12:56:17;16.77;;;6.45;;
5987;SDS011;3021;51.000;6.980;2024-01-15T12:58:42;10.18;;;6.32;;
5987;SDS011;3021;51.000;6.980;2024-01-15T13:01:08;13.52;;;6.43;;
5987;SDS011;3021;51.000;6.980;2024-01-15T13:03:33;15.27;;;5.95;;
5987;SDS011;3021;51.000;6.980;2024-01-15T13:05:58;10.75;;;5.80;;
5987;SDS011;3021;51.000;6.980;2024-01-15T13:08:23;13.88;;;6.13;;
5987;SDS011;3021;51.000;6.980;2024-01-15T13:10:51;9.77;;;5.47;;
5987;SDS011;3021;51.000;6.980;2024-01-15T13:13:21;13.43;;;5.43;;
5987;SDS011;3021;51.000;6.980;2024-01-15T13:15:46;10.27;;;5.85;;
5987;SDS011;3021;51.000;6.980;2024-01-15T13:18:11;12.20;;;5.22;;
5987;SDS011;3021;51.000;6.980;2024-01-15T13:20:37;10.43;;;5.20;;
5987;SDS011;3021;51.000;6.980;2024-01-15T13:23:03;15.57;;;5.78;;
5987;SDS011;3021;51.000;6.980;2024-01-15T13:25:29;13.57;;;5.63;;
5987;SDS011;3021;51.000;6.980;2024-01-15T13:27:54;9.68;;;5.05;;
5987;SDS011;3021;51.000;6.980;2024-01-15T13:30:19;14.75;;;5.43;;
5987;SDS011;3021;51.000;6.980;2024-01-15T13:32:45;8.98;;;4.35;;
5987;SDS011;3021;51.000;6.980;2024-01-15T13:35:10;9.80;;;4.88;;
5987;SDS011;3021;51.000;6.980;2024-01-15T13:37:38;14.07;;;5.63;;
5987;SDS011;3021;51.000;6.980;2024-01-15T13:40:06;11.52;;;4.88;;
5987;SDS011;3021;51.000;6.980;2024-01-15T13:42:34;9.73;;;4.65;;
5987;SDS011;3021;51.000;6.980;2024-01-15T13:44:59;8.10;;;4.05;;
5987;SDS011;3021;51.000;6.980;2024-01-15T13:47:24;12.50;;;4.57;;
5987;SDS011;3021;51.000;6.980;2024-01-15T13:49:50;10.82;;;4.15;;
5987;SDS011;3021;51.000;6.980;2024-01-15T13:52:15;7.53;;;3.95;;
5987;SDS011;3021;51.000;6.980;2024-01-15T13:54:40;7.10;;;3.95;;
5987;SDS011;3021;51.000;6.980;2024-01-15T13:57:06;10.18;;;4.15;;
5987;SDS011;3021;51.000;6.980;2024-01-15T13:59:32;5.70;;;3.33;;
5987;SDS011;3021;51.000;6.980;2024-01-15T14:01:57;5.10;;;3.10;;
5987;SDS011;3021;51.000;6.980;2024-01-15T14:04:23;7.57;;;3.33;;
5987;SDS011;3021;51.000;6.980;2024-01-15T14:06:48;4.20;;;2.97;;
5987;SDS011;3021;51.000;6.980;2024-01-15T14:09:13;5.32;;;2.95;;
5987;SDS011;3021;51.000;6.980;2024-01-15T14:11:39;7.57;;;3.78;;
5987;SDS011;3021;51.000;6.980;2024-01-15T14:14:05;5.82;;;3.72;;
5987;SDS011;3021;51.000;6.980;2024-01-15T14:16:30;6.65;;;3.55;;
5987;SDS011;3021;51.000;6.980;2024-01-15T14:18:55;9.88;;;4.43;;
5987;SDS011;3021;51.000;6.980;2024-01-15T14:21:21;6.97;;;4.22;;
5987;SDS011;3021;51.000;6.980;2024-01-15T14:23:46;8.30;;;4.72;;
5987;SDS011;3021;51.000;6.980;2024-01-15T14:26:12;9.68;;;3.83;;
5987;SDS011;3021;51.000;6.980;2024-01-15T14:28:37;4.95;;;3.25;;
5987;SDS011;3021;51.000;6.980;2024-01-15T14:31:03;6.63;;;4.10;;
5987;SDS011;3021;51.000;6.980;2024-01-15T14:33:30;9.05;;;5.25;;
5987;SDS011;3021;51.000;6.980;2024-01-15T14:35:56;12.07;;;4.55;;
5987;SDS011;3021;51.000;6.980;2024-01-15T14:38:22;7.65;;;4.18;;
5987;SDS011;3021;51.000;6.980;2024-01-15T14:40:48;7.57;;;4.22;;
5987;SDS011;3021;51.000;6.980;2024-01-15T14:43:14;7.35;;;3.78;;
5987;SDS011;3021;51.000;6.980;2024-01-15T14:45:39;5.13;;;3.03;;
5987;SDS011;3021;51.000;6.980;2024-01-15T14:48:05;4.53;;;3.00;;
5987;SDS011;3021;51.000;6.980;2024-01-15T14:50:31;4.07;;;2.63;;
5987;SDS011;3021;51.000;6.980;2024-01-15T14:52:56;7.30;;;3.10;;
5987;SDS011;3021;51.000;6.980;2024-01-15T14:55:21;3.65;;;2.53;;
5987;SDS011;3021;51.000;6.980;2024-01-15T14:57:48;9.40;;;3.75;;
5987;SDS011;3021;51.000;6.980;2024-01-15T15:00:14;5.05;;;3.15;;